Time;durP1;ratioP1;P1;durP2;ratioP2;P2;SDS_P1;SDS_P2;PMS_P1;PMS_P2;Temp;Humidity;BMP_temperature;BMP_pressure;BME280_temperature;BME280_humidity;BME280_pressure;Samples;Min_cycle;Max_cycle;Signal;HPM_P1;HPM_P2
2022/01/05 00:00:08;;;;;;;10.33;4.47;;;5.50;99.90;;;;;;5018141;28;20243;-83
2022/01/05 00:02:36;;;;;;;9.43;5.00;;;5.50;99.90;;;;;;5012918;28;20212;-83
2022/01/05 00:05:04;;;;;;;10.77;4.97;;;5.40;99.90;;;;;;5017541;28;20230;-84
2022/01/05 00:07:32;;;;;;;7.63;3.40;;;5.40;99.90;;;;;;5008898;28;20563;-83
2022/01/05 00:10:00;;;;;;;9.23;3.90;;;5.40;99.90;;;;;;5010698;28;20204;-83
2022/01/05 00:12:27;;;;;;;7.10;3.67;;;5.50;99.90;;;;;;5011314;28;20209;-84
2022/01/05 00:14:53;;;;;;;13.47;4.77;;;5.50;99.90;;;;;;5011331;28;20215;-83
2022/01/05 00:17:21;;;;;;;7.90;3.67;;;5.50;99.90;;;;;;5022094;28;20216;-83
2022/01/05 00:19:48;;;;;;;7.00;3.30;;;5.60;99.90;;;;;;5024898;28;20204;-83
2022/01/05 00:22:15;;;;;;;8.20;4.00;;;5.60;99.90;;;;;;5012241;28;20201;-84
2022/01/05 00:24:44;;;;;;;9.63;4.60;;;5.60;99.90;;;;;;5011795;28;20271;-83
2022/01/05 00:27:11;;;;;;;10.80;5.67;;;5.60;99.90;;;;;;5012022;28;20634;-84
2022/01/05 00:29:38;;;;;;;12.57;6.80;;;5.60;99.90;;;;;;5011717;28;20662;-85
2022/01/05 00:32:06;;;;;;;12.87;6.80;;;5.50;99.90;;;;;;5016165;28;20219;-85
2022/01/05 00:34:33;;;;;;;14.20;6.87;;;5.50;99.90;;;;;;5019098;28;20294;-83
2022/01/05 00:37:00;;;;;;;9.00;4.00;;;5.50;99.90;;;;;;5031333;28;20188;-83
2022/01/05 00:39:27;;;;;;;6.73;3.00;;;5.60;99.90;;;;;;5028116;28;20207;-83
2022/01/05 00:41:55;;;;;;;4.73;2.70;;;5.60;99.90;;;;;;5007983;28;20312;-82
2022/01/05 00:44:24;;;;;;;4.10;2.00;;;5.60;99.90;;;;;;5011159;28;20386;-83
2022/01/05 00:46:51;;;;;;;5.43;2.70;;;5.50;99.90;;;;;;5010993;28;20224;-84
2022/01/05 00:49:18;;;;;;;3.60;2.00;;;5.50;99.90;;;;;;5003508;28;20666;-84
2022/01/05 00:51:45;;;;;;;3.67;2.00;;;5.50;99.90;;;;;;5020933;28;20232;-86
2022/01/05 00:54:12;;;;;;;6.87;2.40;;;5.50;99.90;;;;;;5010939;28;20315;-84
2022/01/05 00:56:39;;;;;;;3.67;2.20;;;5.50;99.90;;;;;;5009823;28;20247;-85
2022/01/05 00:59:07;;;;;;;3.57;1.70;;;5.40;99.90;;;;;;5007752;28;20239;-84
2022/01/05 01:01:36;;;;;;;4.47;1.80;;;5.40;99.90;;;;;;5013077;28;20204;-84
2022/01/05 01:04:03;;;;;;;2.30;1.40;;;5.10;99.90;;;;;;5008937;28;20233;-85
2022/01/05 01:06:30;;;;;;;2.00;1.17;;;4.90;99.90;;;;;;5007794;28;20220;-85
2022/01/05 01:08:57;;;;;;;2.47;1.00;;;4.70;99.90;;;;;;5013248;28;20243;-85
2022/01/05 01:11:26;;;;;;;4.80;1.30;;;4.50;99.90;;;;;;5007940;28;20200;-85
2022/01/05 01:13:53;;;;;;;5.27;1.40;;;4.40;99.90;;;;;;5007955;28;20236;-86
2022/01/05 01:16:22;;;;;;;2.87;1.00;;;4.20;99.90;;;;;;5006310;28;20212;-85
2022/01/05 01:18:49;;;;;;;3.00;1.10;;;4.20;99.90;;;;;;5010368;28;20292;-85
2022/01/05 01:21:16;;;;;;;4.70;1.30;;;4.00;99.90;;;;;;5011390;28;20204;-85
2022/01/05 01:23:54;;;;;;;1.60;1.10;;;3.90;99.90;;;;;;5012231;28;20216;-86
2022/01/05 01:26:21;;;;;;;2.07;0.90;;;3.80;99.90;;;;;;5005969;28;20638;-85
2022/01/05 01:28:48;;;;;;;3.10;1.10;;;3.70;99.90;;;;;;5000204;28;20623;-84
2022/01/05 01:31:15;;;;;;;1.67;0.67;;;3.50;99.90;;;;;;5012740;28;20815;-85
2022/01/05 01:33:44;;;;;;;2.50;0.93;;;3.40;99.90;;;;;;5011771;28;20317;-85
2022/01/05 01:36:11;;;;;;;1.87;0.80;;;3.30;99.90;;;;;;5008191;28;20204;-84
2022/01/05 01:38:38;;;;;;;2.20;0.93;;;3.40;99.90;;;;;;5008929;28;20658;-85
2022/01/05 01:41:05;;;;;;;1.03;0.77;;;3.30;99.90;;;;;;5012023;28;20434;-86
2022/01/05 01:43:32;;;;;;;5.37;0.90;;;3.30;99.90;;;;;;5009205;28;20588;-86
2022/01/05 01:46:01;;;;;;;3.50;1.00;;;3.20;99.90;;;;;;5007553;28;20574;-85
2022/01/05 01:48:28;;;;;;;6.83;1.23;;;3.10;99.90;;;;;;5012081;28;20236;-83
2022/01/05 01:50:56;;;;;;;2.73;0.90;;;3.10;99.90;;;;;;5006328;28;20200;-83
2022/01/05 01:53:23;;;;;;;2.00;0.93;;;3.10;99.90;;;;;;5009401;28;20311;-84
2022/01/05 01:55:51;;;;;;;2.27;1.13;;;3.20;99.90;;;;;;5008318;28;20673;-83
2022/01/05 01:58:20;;;;;;;2.70;1.10;;;3.20;99.90;;;;;;5007098;28;20196;-84
2022/01/05 02:00:47;;;;;;;5.53;1.00;;;;;;;;;;5006768;28;20290;-84
2022/01/05 02:03:15;;;;;;;2.40;1.20;;;;;;;;;;5011263;28;20323;-84
2022/01/05 02:05:42;;;;;;;1.57;0.90;;;;;;;;;;5002500;28;20274;-84
2022/01/05 02:08:11;;;;;;;2.37;1.00;;;3.20;99.90;;;;;;5008115;28;20239;-85
2022/01/05 02:10:39;;;;;;;2.97;1.17;;;3.20;99.90;;;;;;5009776;28;20224;-84
2022/01/05 02:13:06;;;;;;;5.57;1.10;;;;;;;;;;5006670;28;20245;-85
2022/01/05 02:15:34;;;;;;;2.57;1.00;;;;;;;;;;5002376;28;20231;-85
2022/01/05 02:18:21;;;;;;;0.90;0.73;;;;;;;;;;5005299;28;20232;-85
2022/01/05 02:20:54;;;;;;;2.60;1.10;;;;;;;;;;5007758;28;20232;-84
2022/01/05 02:23:21;;;;;;;5.00;1.30;;;;;;;;;;5007531;28;20228;-84
2022/01/05 02:25:49;;;;;;;5.33;0.93;;;;;;;;;;5013615;28;20228;-84
2022/01/05 02:28:16;;;;;;;3.10;0.80;;;;;;;;;;5009413;28;20235;-84
2022/01/05 02:30:44;;;;;;;5.13;0.70;;;;;;;;;;5014310;28;20236;-84
2022/01/05 02:33:11;;;;;;;0.80;0.70;;;;;;;;;;5012509;28;20671;-85
2022/01/05 02:35:38;;;;;;;0.60;0.50;;;;;;;;;;5009796;28;20248;-84
2022/01/05 02:38:07;;;;;;;1.27;0.60;;;;;;;;;;5007285;28;20287;-84
2022/01/05 02:40:34;;;;;;;3.40;0.80;;;;;;;;;;5012997;28;20290;-84
2022/01/05 02:43:01;;;;;;;3.97;0.73;;;;;;;;;;5011337;28;20286;-85
2022/01/05 02:45:28;;;;;;;2.83;0.50;;;;;;;;;;5016634;28;20208;-84
2022/01/05 02:47:56;;;;;;;3.13;0.80;;;;;;;;;;5016532;28;20212;-85
2022/01/05 02:50:23;;;;;;;2.90;0.60;;;;;;;;;;5014135;28;20212;-84
2022/01/05 02:52:50;;;;;;;4.80;1.00;;;;;;;;;;5013722;28;20366;-83
2022/01/05 02:55:19;;;;;;;3.93;0.80;;;;;;;;;;5014470;28;20282;-84
2022/01/05 02:57:46;;;;;;;4.70;0.70;;;;;;;;;;5015040;28;20233;-84
2022/01/05 03:00:14;;;;;;;4.37;0.70;;;;;;;;;;5009497;28;20221;-82
2022/01/05 03:02:42;;;;;;;5.27;0.90;;;;;;;;;;5018926;28;20208;-83
2022/01/05 03:05:09;;;;;;;4.43;0.60;;;;;;;;;;5010353;28;20201;-84
2022/01/05 03:07:39;;;;;;;6.63;1.03;;;;;;;;;;5002959;23;20221;-77
2022/01/05 03:10:07;;;;;;;7.37;0.73;;;;;;;;;;4977851;28;20733;-77
2022/01/05 03:12:36;;;;;;;3.60;0.90;;;;;;;;;;4978066;28;20205;-77
2022/01/05 03:15:03;;;;;;;2.03;0.63;;;;;;;;;;4978983;28;20600;-76
2022/01/05 03:17:31;;;;;;;4.13;0.90;;;;;;;;;;4960805;28;20202;-77
2022/01/05 03:19:58;;;;;;;5.47;1.00;;;;;;;;;;4960675;28;20217;-76
2022/01/05 03:22:25;;;;;;;7.20;0.90;;;;;;;;;;4965345;28;20292;-77
2022/01/05 03:24:52;;;;;;;3.97;0.90;;;;;;;;;;4962497;28;20212;-76
2022/01/05 03:27:19;;;;;;;4.73;1.17;;;;;;;;;;4957447;28;20236;-76
2022/01/05 03:29:48;;;;;;;2.40;1.00;;;;;;;;;;4963112;28;20297;-76
2022/01/05 03:32:15;;;;;;;3.87;1.00;;;;;;;;;;4958282;28;20630;-77
2022/01/05 03:34:44;;;;;;;3.73;1.37;;;;;;;;;;4961159;28;20639;-76
2022/01/05 03:37:11;;;;;;;6.73;1.50;;;;;;;;;;4960369;28;20218;-76
2022/01/05 03:39:38;;;;;;;4.47;1.40;;;;;;;;;;4961404;28;20733;-77
2022/01/05 03:42:06;;;;;;;4.30;1.70;;;;;;;;;;4959482;28;20655;-76
2022/01/05 03:44:34;;;;;;;4.27;2.10;;;;;;;;;;4959583;28;20209;-77
2022/01/05 03:47:03;;;;;;;5.23;1.63;;;;;;;;;;4958502;28;20245;-77
2022/01/05 03:49:30;;;;;;;9.43;1.80;;;;;;;;;;4962109;28;20289;-77
2022/01/05 03:51:57;;;;;;;4.60;2.13;;;;;;;;;;4958490;28;20309;-77
2022/01/05 03:54:24;;;;;;;5.90;2.07;;;;;;;;;;4956615;28;20730;-76
2022/01/05 03:56:51;;;;;;;6.00;2.10;;;;;;;;;;4956463;28;20224;-76
2022/01/05 03:59:19;;;;;;;9.50;2.43;;;;;;;;;;4958891;28;20212;-77
2022/01/05 04:01:46;;;;;;;8.27;2.33;;;;;;;;;;4959202;28;20332;-76
2022/01/05 04:04:14;;;;;;;5.23;2.50;;;;;;;;;;4958996;28;20301;-76
2022/01/05 04:06:42;;;;;;;7.03;3.00;;;;;;;;;;4962034;28;20315;-76
2022/01/05 04:09:10;;;;;;;10.50;3.00;;;;;;;;;;4961478;28;20209;-78
2022/01/05 04:11:37;;;;;;;7.50;3.17;;;;;;;;;;4958727;28;20214;-76
2022/01/05 04:14:05;;;;;;;8.93;3.60;;;;;;;;;;4955434;28;20202;-76
2022/01/05 04:16:32;;;;;;;8.30;3.37;;;;;;;;;;4961027;28;20233;-76
2022/01/05 04:18:59;;;;;;;14.10;4.20;;;;;;;;;;4959999;28;20202;-78
2022/01/05 04:21:27;;;;;;;10.23;4.20;;;;;;;;;;4960449;28;20240;-78
2022/01/05 04:23:55;;;;;;;10.87;4.23;;;;;;;;;;4958949;28;20289;-77
2022/01/05 04:26:22;;;;;;;9.67;3.97;;;;;;;;;;4961766;28;20316;-77
2022/01/05 04:28:49;;;;;;;12.67;4.53;;;;;;;;;;4962023;28;20202;-77
2022/01/05 04:31:16;;;;;;;9.80;4.53;;;;;;;;;;4961968;28;20297;-78
2022/01/05 04:33:43;;;;;;;12.40;5.33;;;;;;;;;;4959936;28;20229;-78
2022/01/05 04:36:11;;;;;;;13.93;4.83;;;;;;;;;;4962009;28;20352;-78
2022/01/05 04:38:39;;;;;;;14.87;5.30;;;;;;;;;;4960900;28;20323;-78
2022/01/05 04:41:06;;;;;;;14.87;5.77;;;;;;;;;;4963247;28;20217;-78
2022/01/05 04:43:33;;;;;;;12.23;6.10;;;;;;;;;;4963561;28;20243;-77
2022/01/05 04:46:01;;;;;;;11.70;5.80;;;;;;;;;;4960529;28;20804;-77
2022/01/05 04:48:29;;;;;;;17.33;6.57;;;;;;;;;;4959981;28;20221;-77
2022/01/05 04:50:56;;;;;;;12.77;6.00;;;;;;;;;;4957994;28;20221;-78
2022/01/05 04:53:23;;;;;;;18.93;6.93;;;;;;;;;;4973253;28;20229;-77
2022/01/05 04:55:53;;;;;;;18.63;6.37;;;;;;;;;;4971148;28;20249;-77
2022/01/05 04:58:20;;;;;;;19.20;6.50;;;;;;;;;;4958845;28;20216;-78
2022/01/05 05:00:48;;;;;;;15.03;6.60;;;;;;;;;;4958455;28;20250;-77
2022/01/05 05:03:15;;;;;;;16.17;6.17;;;;;;;;;;4957855;28;20202;-77
2022/01/05 05:05:42;;;;;;;14.40;7.00;;;;;;;;;;4960324;28;20280;-76
2022/01/05 05:08:09;;;;;;;14.63;6.10;;;;;;;;;;4963329;28;20310;-77
2022/01/05 05:10:36;;;;;;;9.40;4.80;;;;;;;;;;4965072;28;20237;-78
2022/01/05 05:13:09;;;;;;;16.80;7.90;;;;;;;;;;4968366;28;20214;-78
2022/01/05 05:15:36;;;;;;;18.17;6.20;;;;;;;;;;4967296;28;20352;-78
2022/01/05 05:18:04;;;;;;;14.37;5.70;;;;;;;;;;4971236;28;20204;-78
2022/01/05 05:20:32;;;;;;;13.67;5.70;;;;;;;;;;4974492;28;20292;-76
2022/01/05 05:22:59;;;;;;;13.27;6.13;;;;;;;;;;4963463;28;20280;-77
2022/01/05 05:25:26;;;;;;;16.03;5.70;;;;;;;;;;4966620;28;20318;-77
2022/01/05 05:27:54;;;;;;;15.70;5.67;;;;;;;;;;4968431;28;20233;-78
2022/01/05 05:30:22;;;;;;;12.13;5.20;;;;;;;;;;4966081;28;20439;-77
2022/01/05 05:32:49;;;;;;;12.33;5.03;;;;;;;;;;4959272;28;20209;-77
2022/01/05 05:35:17;;;;;;;11.53;5.03;;;;;;;;;;4958528;28;20222;-78
2022/01/05 05:37:44;;;;;;;15.53;4.53;;;;;;;;;;4957930;28;20305;-78
2022/01/05 05:40:11;;;;;;;11.67;4.33;;;;;;;;;;4963093;28;20288;-77
2022/01/05 05:42:39;;;;;;;16.33;4.27;;;;;;;;;;4960655;28;20293;-77
2022/01/05 05:45:06;;;;;;;13.77;4.47;;;;;;;;;;4956375;28;20209;-77
2022/01/05 05:47:35;;;;;;;12.80;3.97;;;;;;;;;;4956596;28;21724;-77
2022/01/05 05:50:02;;;;;;;14.60;4.33;;;;;;;;;;4958850;28;20235;-77
2022/01/05 05:52:29;;;;;;;11.87;3.23;;;;;;;;;;4963445;28;20316;-77
2022/01/05 05:54:56;;;;;;;8.60;3.60;;;;;;;;;;4958062;28;20214;-77
2022/01/05 05:57:24;;;;;;;12.87;3.57;;;;;;;;;;4962318;28;20455;-77
2022/01/05 05:59:51;;;;;;;15.33;3.90;;;;;;;;;;4960960;28;20377;-77
2022/01/05 06:02:18;;;;;;;12.83;4.20;;;;;;;;;;4963290;28;20204;-77
2022/01/05 06:04:47;;;;;;;15.63;4.10;;;;;;;;;;4963930;28;20268;-77
2022/01/05 06:07:14;;;;;;;21.63;4.23;;;;;;;;;;4963487;28;20665;-77
2022/01/05 06:09:41;;;;;;;14.97;3.80;;;;;;;;;;4963212;28;20289;-78
2022/01/05 06:12:09;;;;;;;12.20;4.80;;;;;;;;;;4966119;28;20670;-77
2022/01/05 06:14:36;;;;;;;11.10;4.07;;;;;;;;;;4959091;28;20285;-77
2022/01/05 06:17:03;;;;;;;8.00;3.83;;;;;;;;;;4963565;28;20226;-77
2022/01/05 06:19:31;;;;;;;10.80;4.47;;;;;;;;;;4959918;28;20202;-77
2022/01/05 06:21:59;;;;;;;16.13;3.67;;;;;;;;;;4961372;28;20242;-77
2022/01/05 06:24:27;;;;;;;13.27;3.90;;;;;;;;;;4960745;28;20293;-77
2022/01/05 06:26:54;;;;;;;17.13;4.60;;;;;;;;;;4957986;28;20255;-77
2022/01/05 06:29:21;;;;;;;16.63;4.07;;;;;;;;;;4961010;28;20213;-77
2022/01/05 06:31:48;;;;;;;14.33;3.60;;;;;;;;;;4962828;28;20206;-77
2022/01/05 06:34:16;;;;;;;12.63;3.80;;;;;;;;;;4961426;28;20209;-76
2022/01/05 06:36:43;;;;;;;14.63;3.47;;;;;;;;;;4962042;28;20709;-77
2022/01/05 06:39:12;;;;;;;13.37;3.60;;;;;;;;;;4965687;28;20305;-76
2022/01/05 06:41:39;;;;;;;16.90;4.63;;;;;;;;;;4968449;28;20206;-77
2022/01/05 06:44:08;;;;;;;14.73;4.00;;;;;;;;;;4981195;28;20217;-77
2022/01/05 06:46:35;;;;;;;18.03;4.43;;;;;;;;;;4981722;28;20256;-77
2022/01/05 06:49:02;;;;;;;12.50;3.73;;;;;;;;;;4966171;28;20818;-77
2022/01/05 06:51:29;;;;;;;14.17;3.73;;;;;;;;;;4961268;28;20216;-77
2022/01/05 06:53:57;;;;;;;17.30;3.27;;;;;;;;;;4959714;28;20670;-77
2022/01/05 06:56:25;;;;;;;12.93;2.67;;;;;;;;;;4962855;28;20232;-77
2022/01/05 06:58:52;;;;;;;9.73;3.20;;;;;;;;;;4961201;28;20198;-77
2022/01/05 07:01:19;;;;;;;11.23;3.50;;;;;;;;;;4958087;28;20211;-77
2022/01/05 07:03:47;;;;;;;11.20;2.57;;;;;;;;;;4959824;28;20209;-77
2022/01/05 07:06:14;;;;;;;11.60;3.40;;;;;;;;;;4957432;28;20233;-77
2022/01/05 07:08:41;;;;;;;9.80;3.60;;;;;;;;;;4960385;28;20244;-77
2022/01/05 07:11:08;;;;;;;13.57;3.40;;;;;;;;;;4958059;28;20645;-77
2022/01/05 07:13:37;;;;;;;12.37;3.70;;;;;;;;;;4969265;28;20206;-77
2022/01/05 07:16:04;;;;;;;26.57;3.40;;;;;;;;;;4981777;28;20838;-77
2022/01/05 07:18:31;;;;;;;13.10;3.60;;;;;;;;;;4968264;28;20208;-77
2022/01/05 07:20:58;;;;;;;11.47;3.77;;;;;;;;;;4963629;28;20206;-77
2022/01/05 07:23:25;;;;;;;21.30;3.13;;;;;;;;;;4962103;28;20201;-77
2022/01/05 07:25:53;;;;;;;18.53;3.73;;;;;;;;;;4959440;28;20222;-77
2022/01/05 07:28:20;;;;;;;16.73;3.73;;;;;;;;;;4957269;28;20230;-77
2022/01/05 07:30:48;;;;;;;13.77;3.83;;;;;;;;;;4960908;28;20216;-77
2022/01/05 07:33:19;;;;;;;13.70;3.30;;;;;;;;;;4961277;28;21066;-77
2022/01/05 07:35:46;;;;;;;11.67;3.00;;;;;;;;;;4959609;28;20241;-77
2022/01/05 07:38:13;;;;;;;7.70;2.67;;;;;;;;;;4958115;28;20471;-77
2022/01/05 07:40:40;;;;;;;10.90;3.30;;;;;;;;;;4960524;28;20210;-77
2022/01/05 07:43:07;;;;;;;11.90;3.33;;;;;;;;;;4957827;28;20237;-76
2022/01/05 07:45:36;;;;;;;14.20;3.37;;;;;;;;;;4959428;28;20792;-77
2022/01/05 07:48:04;;;;;;;16.53;3.23;;;;;;;;;;4963609;28;20230;-77
2022/01/05 07:50:32;;;;;;;16.80;3.17;;;;;;;;;;4965483;28;20203;-77
2022/01/05 07:53:01;;;;;;;20.77;4.13;;;;;;;;;;4957329;28;20288;-77
2022/01/05 07:55:30;;;;;;;14.80;3.10;;;;;;;;;;4960396;28;20269;-77
2022/01/05 07:57:57;;;;;;;11.73;2.60;;;;;;;;;;4958260;28;20213;-77
2022/01/05 08:00:24;;;;;;;13.30;2.90;;;;;;;;;;4954746;28;20209;-77
2022/01/05 08:02:51;;;;;;;13.00;2.80;;;;;;;;;;4959420;28;20461;-77
2022/01/05 08:05:20;;;;;;;13.37;2.90;;;;;;;;;;4954219;28;20221;-77
2022/01/05 08:07:48;;;;;;;10.77;2.93;;;;;;;;;;4960533;28;20226;-77
2022/01/05 08:10:15;;;;;;;14.30;3.30;;;;;;;;;;4954831;28;20210;-77
2022/01/05 08:12:43;;;;;;;15.03;3.50;;;;;;;;;;4958938;28;20973;-77
2022/01/05 08:15:10;;;;;;;12.20;2.63;;;;;;;;;;4959634;28;20202;-78
2022/01/05 08:17:38;;;;;;;10.67;3.50;;;;;;;;;;4951806;28;20250;-77
2022/01/05 08:20:06;;;;;;;9.43;3.00;;;;;;;;;;4952258;28;20445;-77
2022/01/05 08:22:35;;;;;;;16.77;3.30;;;;;;;;;;4963274;28;20210;-77
2022/01/05 08:25:02;;;;;;;15.83;3.20;;;;;;;;;;4970137;28;20198;-77
2022/01/05 08:27:29;;;;;;;10.57;2.83;;;;;;;;;;4960381;28;20320;-77
2022/01/05 08:29:59;;;;;;;14.57;2.63;;;;;;;;;;4954031;28;20493;-78
2022/01/05 08:32:26;;;;;;;14.47;2.73;;;;;;;;;;4959096;28;20209;-77
2022/01/05 08:34:54;;;;;;;13.97;3.00;;;;;;;;;;4957044;28;20300;-77
2022/01/05 08:37:21;;;;;;;13.17;2.80;;;;;;;;;;4950988;28;20209;-78
2022/01/05 08:39:51;;;;;;;8.60;2.50;;;;;;;;;;4953052;28;20206;-77
2022/01/05 08:42:18;;;;;;;8.00;2.20;;;;;;;;;;4953791;28;20213;-77
2022/01/05 08:44:45;;;;;;;5.90;2.07;;;;;;;;;;4952539;28;20394;-77
2022/01/05 08:47:12;;;;;;;14.63;3.10;;;;;;;;;;4955287;28;20226;-77
2022/01/05 08:49:39;;;;;;;6.03;2.17;;;;;;;;;;4952316;28;20218;-77
2022/01/05 08:52:07;;;;;;;14.67;2.60;;;;;;;;;;4957407;28;20693;-77
2022/01/05 08:54:34;;;;;;;10.73;2.57;;;;;;;;;;4960264;28;20290;-77
2022/01/05 08:57:02;;;;;;;16.37;2.50;;;;;;;;;;4960807;28;20288;-78
2022/01/05 08:59:29;;;;;;;15.67;3.13;;;;;;;;;;4955031;28;20749;-78
2022/01/05 09:01:57;;;;;;;14.60;3.20;;;;;;;;;;4957184;28;20220;-77
2022/01/05 09:04:24;;;;;;;15.77;2.73;;;;;;;;;;4958955;28;20231;-77
2022/01/05 09:06:51;;;;;;;8.80;2.47;;;;;;;;;;5004103;23;20243;-81
2022/01/05 09:09:18;;;;;;;14.00;2.53;;;;;;;;;;5019684;28;20233;-80
2022/01/05 09:11:45;;;;;;;20.27;2.80;;;;;;;;;;5022450;28;20214;-80
2022/01/05 09:14:14;;;;;;;12.50;2.87;;;;;;;;;;5020424;28;20208;-80
2022/01/05 09:16:41;;;;;;;15.57;2.37;;;;;;;;;;5018747;28;20231;-80
2022/01/05 09:19:08;;;;;;;14.70;3.20;;;;;;;;;;5023729;28;20603;-80
2022/01/05 09:21:36;;;;;;;12.33;2.83;;;;;;;;;;5035982;28;20211;-80
2022/01/05 09:24:03;;;;;;;11.33;3.20;;;;;;;;;;5035108;28;20323;-79
2022/01/05 09:26:31;;;;;;;15.27;3.33;;;;;;;;;;5033585;28;20704;-80
2022/01/05 09:28:58;;;;;;;19.27;5.77;;;;;;;;;;5030558;28;20243;-81
2022/01/05 09:31:26;;;;;;;11.77;2.37;;;;;;;;;;5017371;28;20233;-81
2022/01/05 09:33:53;;;;;;;11.47;2.40;;;;;;;;;;5022495;28;20744;-82
2022/01/05 09:36:31;;;;;;;14.93;2.10;;;;;;;;;;5025043;28;20286;-82
2022/01/05 09:41:59;;;;;;;9.93;2.30;;;;;;;;;;4988393;28;20196;-81
2022/01/05 09:44:27;;;;;;;12.10;2.47;;;;;;;;;;5021773;28;20204;-81
2022/01/05 09:47:05;;;;;;;13.93;4.30;;;;;;;;;;5027029;28;20267;-82
2022/01/05 09:49:34;;;;;;;16.93;3.00;;;;;;;;;;5030780;28;20214;-82
2022/01/05 09:52:04;;;;;;;11.37;2.70;;;;;;;;;;5031165;28;20282;-81
2022/01/05 09:54:46;;;;;;;14.30;2.73;;;;;;;;;;5031983;28;20222;-82
2022/01/05 09:57:16;;;;;;;7.37;1.73;;;;;;;;;;5022527;28;20223;-80
2022/01/05 09:59:45;;;;;;;19.90;2.77;;;;;;;;;;5028475;28;20204;-80
2022/01/05 10:02:17;;;;;;;13.27;3.10;;;;;;;;;;5031862;28;20216;-81
2022/01/05 10:04:45;;;;;;;10.23;2.63;;;;;;;;;;5037618;28;20688;-81
2022/01/05 10:07:13;;;;;;;9.00;2.47;;;;;;;;;;5034685;28;20246;-80
2022/01/05 10:09:41;;;;;;;12.00;2.60;;;;;;;;;;5026310;28;20223;-80
2022/01/05 10:12:09;;;;;;;14.33;1.60;;;;;;;;;;5029701;28;20259;-83
2022/01/05 10:14:39;;;;;;;7.73;2.33;;;;;;;;;;5032120;28;20269;-80
2022/01/05 10:17:07;;;;;;;10.23;2.20;;;;;;;;;;5026138;28;20238;-81
2022/01/05 10:19:37;;;;;;;12.57;2.43;;;;;;;;;;5026425;28;20223;-82
2022/01/05 10:22:05;;;;;;;11.67;2.20;;;;;;;;;;5029929;28;20226;-82
2022/01/05 10:24:43;;;;;;;6.57;1.77;;;;;;;;;;5021020;28;20200;-81
2022/01/05 10:27:15;;;;;;;11.67;2.73;;;;;;;;;;5029259;28;20231;-80
2022/01/05 10:32:42;;;;;;;7.90;1.70;;;;;;;;;;5030314;28;20268;-80
2022/01/05 10:35:13;;;;;;;10.37;2.60;;;;;;;;;;5029282;28;20259;-81
2022/01/05 10:37:41;;;;;;;9.17;2.27;;;;;;;;;;5032720;28;20256;-80
2022/01/05 10:40:10;;;;;;;11.03;2.00;;;;;;;;;;5039774;28;20244;-80
2022/01/05 10:42:38;;;;;;;10.97;2.73;;;;;;;;;;5042246;28;20223;-80
2022/01/05 10:45:08;;;;;;;7.27;1.93;;;;;;;;;;5041703;28;20184;-82
2022/01/05 10:47:36;;;;;;;11.77;2.03;;;;;;;;;;5038222;28;20255;-81
2022/01/05 10:50:03;;;;;;;13.77;2.90;;;;;;;;;;5027960;28;20303;-81
2022/01/05 10:52:33;;;;;;;15.10;2.53;;;;;;;;;;5046019;28;20214;-81
2022/01/05 10:55:09;;;;;;;12.70;3.13;;;;;;;;;;5040634;28;20213;-82
2022/01/05 10:57:37;;;;;;;15.80;2.53;;;;;;;;;;5031036;28;20230;-82
2022/01/05 11:00:05;;;;;;;4.87;1.73;;;;;;;;;;5028205;28;20583;-80
2022/01/05 11:02:34;;;;;;;4.53;1.60;;;;;;;;;;5027625;28;20226;-79
2022/01/05 11:05:12;;;;;;;9.73;1.87;;;;;;;;;;5027758;28;20306;-79
2022/01/05 11:07:42;;;;;;;8.10;2.40;;;;;;;;;;5031937;28;20246;-81
2022/01/05 11:10:11;;;;;;;7.10;2.03;;;;;;;;;;5024654;28;20239;-81
2022/01/05 11:12:40;;;;;;;11.27;2.10;;;;;;;;;;5029076;28;20204;-81
2022/01/05 11:15:20;;;;;;;7.10;2.17;;;;;;;;;;5025080;28;20208;-81
2022/01/05 11:18:02;;;;;;;9.33;1.90;;;;;;;;;;5025090;28;20224;-80
2022/01/05 11:20:29;;;;;;;12.40;1.73;;;;;;;;;;5029429;28;20232;-81
2022/01/05 11:22:58;;;;;;;28.43;6.67;;;;;;;;;;5036486;28;20212;-81
2022/01/05 11:25:26;;;;;;;15.53;3.33;;;;;;;;;;5028332;28;20223;-80
2022/01/05 11:27:53;;;;;;;26.17;6.13;;;;;;;;;;5027527;28;20787;-81
2022/01/05 11:30:20;;;;;;;49.03;10.70;;;;;;;;;;5032297;28;20223;-81
2022/01/05 11:32:48;;;;;;;13.60;2.87;;;;;;;;;;5029655;28;20265;-81
2022/01/05 11:35:15;;;;;;;9.97;1.80;;;;;;;;;;5028230;28;20208;-82
2022/01/05 11:40:15;;;;;;;68.37;30.70;;;;;;;;;;5004389;28;20244;-76
2022/01/05 11:42:44;;;;;;;9.00;3.20;;;;;;;;;;4994392;28;20313;-76
2022/01/05 11:45:12;;;;;;;30.13;14.83;;;;;;;;;;4998923;28;20200;-77
2022/01/05 11:47:40;;;;;;;24.63;12.47;;;;;;;;;;4981066;28;20225;-76
2022/01/05 11:50:22;;;;;;;17.47;8.20;;;;;;;;;;4981126;28;20308;-78
2022/01/05 11:52:56;;;;;;;10.23;2.17;;;;;;;;;;4987165;28;20535;-78
2022/01/05 11:55:25;;;;;;;13.40;3.40;;;;;;;;;;4985533;28;20790;-79
2022/01/05 11:58:11;;;;;;;11.47;3.47;;;;;;;;;;4979455;28;20820;-75
2022/01/05 12:00:38;;;;;;;10.60;2.70;;;;;;;;;;4982138;28;20204;-76
2022/01/05 12:03:05;;;;;;;18.13;5.00;;;;;;;;;;4976928;28;20301;-76
2022/01/05 12:05:47;;;;;;;10.87;3.30;;;;;;;;;;4981318;28;20325;-78
2022/01/05 12:08:29;;;;;;;10.57;3.37;;;;;;;;;;4988525;28;20205;-77
2022/01/05 12:10:59;;;;;;;6.27;3.50;;;;;;;;;;4979747;28;20225;-77
2022/01/05 12:13:36;;;;;;;9.70;3.30;;;;;;;;;;4979968;28;20205;-78
2022/01/05 12:16:04;;;;;;;18.10;7.30;;;;;;;;;;4969070;28;20832;-77
2022/01/05 12:18:36;;;;;;;11.13;3.40;;;;;;;;;;4969933;28;20209;-78
2022/01/05 12:21:03;;;;;;;13.77;5.37;;;;;;;;;;4987313;28;20225;-77
2022/01/05 12:23:32;;;;;;;12.80;3.20;;;;;;;;;;4990132;28;20217;-78
2022/01/05 12:26:18;;;;;;;7.77;2.73;;;;;;;;;;4984809;28;20245;-78
2022/01/05 12:28:57;;;;;;;13.17;4.57;;;;;;;;;;4990408;28;20709;-77
2022/01/05 12:31:52;;;;;;;10.73;2.90;;;;;;;;;;4990335;28;21026;-77
2022/01/05 12:34:35;;;;;;;13.93;3.90;;;;;;;;;;4970297;28;20223;-77
2022/01/05 12:37:02;;;;;;;12.97;4.60;;;;;;;;;;4991000;28;20228;-78
2022/01/05 12:39:45;;;;;;;6.50;2.33;;;;;;;;;;4986474;28;20225;-78
2022/01/05 12:42:24;;;;;;;6.60;2.17;;;;;;;;;;4991985;28;20201;-76
2022/01/05 12:44:52;;;;;;;5.03;2.10;;;;;;;;;;4987211;28;20649;-76
2022/01/05 12:47:36;;;;;;;8.57;2.97;;;;;;;;;;4982086;28;20230;-77
2022/01/05 12:50:20;;;;;;;6.80;1.70;;;;;;;;;;4989690;28;20225;-77
2022/01/05 12:52:47;;;;;;;9.57;3.33;;;;;;;;;;4991973;28;20264;-77
2022/01/05 12:55:19;;;;;;;8.80;2.23;;;;;;;;;;4990533;28;20259;-77
2022/01/05 12:57:54;;;;;;;4.57;1.60;;;;;;;;;;4988029;28;20309;-77
2022/01/05 13:00:25;;;;;;;6.53;2.33;;;;;;;;;;4986805;28;20212;-77
2022/01/05 13:02:52;;;;;;;2.50;1.23;;;;;;;;;;4993514;28;20264;-77
2022/01/05 13:05:30;;;;;;;4.80;2.00;;;;;;;;;;4985516;28;20711;-77
2022/01/05 13:07:59;;;;;;;7.83;2.53;;;;;;;;;;4985100;28;20208;-79
2022/01/05 13:10:28;;;;;;;7.67;2.27;;;;;;;;;;4983436;28;20228;-77
2022/01/05 13:13:07;;;;;;;3.77;2.00;;;;;;;;;;4976962;28;20324;-77
2022/01/05 13:15:34;;;;;;;8.53;2.80;;;;;;;;;;4978631;28;20235;-77
2022/01/05 13:18:02;;;;;;;8.90;2.50;;;;;;;;;;4978261;28;20197;-76
2022/01/05 13:20:29;;;;;;;11.00;3.97;;;;;;;;;;4977687;28;20288;-77
2022/01/05 13:22:57;;;;;;;8.50;3.10;;;;;;;;;;4976300;28;20201;-77
2022/01/05 13:25:27;;;;;;;4.73;2.03;;;;;;;;;;4977076;28;20640;-77
2022/01/05 13:28:00;;;;;;;8.70;2.47;;;;;;;;;;4989633;28;20692;-77
2022/01/05 13:30:29;;;;;;;9.67;3.73;;;;;;;;;;4990077;28;20213;-78
2022/01/05 13:32:59;;;;;;;11.50;2.97;;;;;;;;;;4991362;28;20236;-79
2022/01/05 13:35:31;;;;;;;10.40;3.83;;;;;;;;;;5003138;28;20232;-78
2022/01/05 13:37:59;;;;;;;5.40;2.10;;;;;;;;;;4989831;28;20232;-77
2022/01/05 13:40:27;;;;;;;6.67;3.20;;;;;;;;;;4981372;28;20205;-77
2022/01/05 13:42:57;;;;;;;5.20;2.40;;;;;;;;;;4985144;28;20688;-77
2022/01/05 13:45:26;;;;;;;12.00;4.00;;;;;;;;;;4978358;28;20217;-78
2022/01/05 13:47:59;;;;;;;9.87;3.13;;;;;;;;;;4973253;28;20205;-77
2022/01/05 13:50:27;;;;;;;14.23;4.40;;;;;;;;;;4976718;28;20319;-77
2022/01/05 13:52:59;;;;;;;4.97;3.10;;;;;;;;;;4976927;28;20202;-77
2022/01/05 13:55:27;;;;;;;11.20;4.13;;;;;;;;;;4983227;28;20303;-77
2022/01/05 13:58:05;;;;;;;13.23;3.50;;;;;;;;;;4979662;28;20632;-77
2022/01/05 14:00:32;;;;;;;9.03;3.60;;;;;;;;;;4981262;28;20292;-77
2022/01/05 14:03:01;;;;;;;12.40;3.60;;;;;;;;;;4975868;28;20299;-77
2022/01/05 14:05:28;;;;;;;8.40;2.87;;;;;;;;;;4980221;28;20229;-77
2022/01/05 14:08:05;;;;;;;15.80;3.27;;;;;;;;;;4973397;28;20221;-77
2022/01/05 14:10:35;;;;;;;6.67;3.57;;;;;;;;;;4976335;28;20693;-76
2022/01/05 14:13:03;;;;;;;11.10;3.60;;;;;;;;;;4973111;28;20205;-77
2022/01/05 14:15:31;;;;;;;12.07;4.07;;;;;;;;;;4975395;28;20311;-77
2022/01/05 14:18:04;;;;;;;9.07;3.93;;;;;;;;;;4977075;28;20206;-77
2022/01/05 14:20:32;;;;;;;11.80;4.13;;;;;;;;;;4981871;28;20288;-78
2022/01/05 14:23:01;;;;;;;12.33;3.63;;;;;;;;;;4977807;28;20685;-78
2022/01/05 14:25:35;;;;;;;11.13;4.40;;;;;;;;;;4979117;28;20425;-77
2022/01/05 14:28:10;;;;;;;11.60;3.23;;;;;;;;;;4979149;28;20292;-78
2022/01/05 14:30:37;;;;;;;9.33;3.60;;;;;;;;;;4979934;28;20225;-78
2022/01/05 14:33:06;;;;;;;9.27;3.33;;;;;;;;;;4984027;28;20211;-78
2022/01/05 14:35:33;;;;;;;9.33;4.20;;;;;;;;;;4977415;28;20751;-78